Ciudad Constitucion Airport


Codes: MMDA/CUA
Name: Ciudad Constitucion Airport
City: Ciudad Constitucion
Country: Mexico
Elevation: 213 ft.
Wikipedia:

Photos at Ciudad Constitucion Airport


   Photos courtesy of SpottingLog. You can add your own sightings and photos by signing up for a free trial today.



No photos found.

Weather at Ciudad Constitucion Airport


Time (UTC)DescriptionTempratureWindCloud coverageVisibilityPressureHumidity
18-Apr-2024 00:00Broken Clouds32°C16 mph, W58%10000m1011hPa18%
18-Apr-2024 03:00Broken Clouds24°C13 mph, NW55%10000m1013hPa42%
18-Apr-2024 06:00Scattered Clouds17°C7 mph, NW31%10000m1014hPa71%
18-Apr-2024 09:00Clear Sky16°C9 mph, NW8%10000m1013hPa76%
18-Apr-2024 12:00Clear Sky15°C4 mph, N4%10000m1012hPa72%
18-Apr-2024 15:00Clear Sky19°C11 mph, NW0%10000m1015hPa61%
18-Apr-2024 18:00Clear Sky29°C7 mph, NW0%10000m1014hPa23%
18-Apr-2024 21:00Clear Sky33°C16 mph, W2%10000m1012hPa15%
19-Apr-2024 00:00Few Clouds27°C18 mph, W23%10000m1012hPa26%
19-Apr-2024 03:00Overcast Clouds19°C11 mph, NW100%10000m1014hPa59%
19-Apr-2024 06:00Broken Clouds16°C7 mph, NW66%10000m1014hPa76%
19-Apr-2024 09:00Scattered Clouds15°C7 mph, NW31%10000m1013hPa79%
19-Apr-2024 12:00Broken Clouds15°C7 mph, NW64%10000m1013hPa90%
19-Apr-2024 15:00Overcast Clouds19°C7 mph, NW100%10000m1014hPa54%
19-Apr-2024 18:00Broken Clouds28°C13 mph, NW59%10000m1013hPa24%
19-Apr-2024 21:00Clear Sky31°C18 mph, NW1%10000m1011hPa15%
20-Apr-2024 00:00Clear Sky26°C18 mph, NW0%10000m1011hPa25%
20-Apr-2024 03:00Clear Sky18°C11 mph, NW0%10000m1013hPa70%
20-Apr-2024 06:00Clear Sky16°C9 mph, NW0%10000m1014hPa82%
20-Apr-2024 09:00Clear Sky15°C9 mph, NW0%10000m1013hPa92%
20-Apr-2024 12:00Clear Sky14°C7 mph, NW0%10000m1013hPa93%
20-Apr-2024 15:00Clear Sky19°C11 mph, NW0%10000m1015hPa58%
20-Apr-2024 18:00Clear Sky28°C13 mph, NW0%10000m1014hPa21%
20-Apr-2024 21:00Clear Sky29°C18 mph, NW0%10000m1013hPa19%
21-Apr-2024 00:00Few Clouds27°C18 mph, NW13%10000m1012hPa23%
21-Apr-2024 03:00Overcast Clouds18°C13 mph, NW94%10000m1014hPa64%
21-Apr-2024 06:00Overcast Clouds17°C9 mph, NW98%10000m1015hPa79%
21-Apr-2024 09:00Broken Clouds16°C9 mph, NW75%10000m1013hPa86%
21-Apr-2024 12:00Broken Clouds14°C4 mph, NW54%10000m1012hPa86%
21-Apr-2024 15:00Overcast Clouds20°C9 mph, NW91%10000m1014hPa46%
21-Apr-2024 18:00Broken Clouds28°C11 mph, NW66%10000m1013hPa20%
21-Apr-2024 21:00Clear Sky31°C16 mph, W0%10000m1011hPa15%
22-Apr-2024 00:00Clear Sky25°C16 mph, NW0%10000m1011hPa29%
22-Apr-2024 03:00Clear Sky18°C11 mph, NW0%10000m1012hPa64%
22-Apr-2024 06:00Clear Sky16°C9 mph, NW0%10000m1013hPa84%
22-Apr-2024 09:00Clear Sky15°C7 mph, NW0%10000m1011hPa88%
22-Apr-2024 12:00Clear Sky14°C7 mph, NW0%10000m1011hPa92%
22-Apr-2024 15:00Clear Sky18°C7 mph, NW0%10000m1012hPa73%
22-Apr-2024 18:00Clear Sky27°C9 mph, W0%10000m1012hPa31%
22-Apr-2024 21:00Clear Sky30°C16 mph, W0%10000m1010hPa22%